Time;durP1;ratioP1;P1;durP2;ratioP2;P2;SDS_P1;SDS_P2;PMS_P1;PMS_P2;Temp;Humidity;BMP_temperature;BMP_pressure;BME280_temperature;BME280_humidity;BME280_pressure;Samples;Min_cycle;Max_cycle;Signal;HPM_P1;HPM_P2
2021/04/19 00:00:15;;;;;;;10.25;6.22;;;8.80;88.70;;;;;;4993462;28;20120;-37
2021/04/19 00:02:42;;;;;;;12.15;6.55;;;8.70;88.90;;;;;;4993147;28;20457;-36
2021/04/19 00:05:13;;;;;;;14.82;6.60;;;8.60;89.10;;;;;;4995514;28;20390;-38
2021/04/19 00:07:38;;;;;;;11.02;6.68;;;8.60;89.50;;;;;;4992201;28;20117;-38
2021/04/19 00:10:05;;;;;;;10.63;6.65;;;8.50;89.70;;;;;;4996296;28;20412;-39
2021/04/19 00:12:32;;;;;;;12.30;6.53;;;8.50;90.00;;;;;;4989179;28;20054;-39
2021/04/19 00:14:58;;;;;;;10.35;6.07;;;8.50;90.20;;;;;;4999225;28;20049;-38
2021/04/19 00:17:23;;;;;;;14.05;6.47;;;8.40;90.20;;;;;;4988437;28;20026;-37
2021/04/19 00:19:49;;;;;;;11.55;6.88;;;8.40;90.40;;;;;;4998469;28;20042;-35
2021/04/19 00:22:14;;;;;;;13.93;6.80;;;8.30;90.60;;;;;;4970508;28;20554;-35
2021/04/19 00:24:40;;;;;;;11.48;6.80;;;8.30;90.80;;;;;;4999692;28;20018;-36
2021/04/19 00:27:06;;;;;;;12.60;7.40;;;8.30;90.80;;;;;;4987643;28;20053;-37
2021/04/19 00:29:31;;;;;;;11.10;7.28;;;8.20;91.00;;;;;;4999316;28;20460;-37
2021/04/19 00:31:57;;;;;;;13.25;7.55;;;8.20;91.20;;;;;;4988227;28;20363;-38
2021/04/19 00:34:22;;;;;;;13.88;7.45;;;8.10;91.40;;;;;;4997852;28;20180;-34
2021/04/19 00:36:48;;;;;;;13.43;8.18;;;8.10;91.50;;;;;;4987829;28;20031;-38
2021/04/19 00:39:16;;;;;;;10.98;7.43;;;8.00;91.60;;;;;;4995532;28;20022;-35
2021/04/19 00:41:43;;;;;;;12.73;7.97;;;8.00;91.80;;;;;;4991942;28;20041;-38
2021/04/19 00:44:09;;;;;;;20.70;9.13;;;7.90;91.80;;;;;;4993359;28;20014;-35
2021/04/19 00:46:34;;;;;;;12.77;7.63;;;7.90;92.00;;;;;;4993819;28;20044;-34
2021/04/19 00:49:00;;;;;;;12.63;7.25;;;7.90;92.10;;;;;;4989737;28;20466;-36
2021/04/19 00:51:26;;;;;;;12.13;7.70;;;7.80;92.10;;;;;;4995779;28;20110;-37
2021/04/19 00:53:53;;;;;;;12.77;7.28;;;7.80;92.20;;;;;;4992168;28;20385;-37
2021/04/19 00:56:21;;;;;;;12.55;6.93;;;7.70;92.50;;;;;;4996288;28;20032;-36
2021/04/19 00:58:47;;;;;;;9.68;6.57;;;7.70;92.30;;;;;;5004971;28;20031;-34
2021/04/19 01:01:14;;;;;;;9.77;6.63;;;7.70;92.40;;;;;;4996015;28;20043;-37
2021/04/19 01:03:41;;;;;;;11.00;6.38;;;7.60;92.40;;;;;;4991944;28;20015;-39
2021/04/19 01:06:06;;;;;;;7.50;5.55;;;7.60;92.40;;;;;;5005234;28;20397;-36
2021/04/19 01:08:33;;;;;;;9.25;5.57;;;7.60;92.40;;;;;;5007194;28;20026;-38
2021/04/19 01:10:59;;;;;;;9.68;6.32;;;7.60;92.40;;;;;;4993889;28;20061;-38
2021/04/19 01:13:25;;;;;;;10.25;6.85;;;7.60;92.40;;;;;;5006866;28;20021;-38
2021/04/19 01:15:50;;;;;;;11.10;7.15;;;7.60;92.50;;;;;;4995242;28;20333;-38
2021/04/19 01:18:16;;;;;;;9.57;6.47;;;7.50;92.70;;;;;;5005960;28;20018;-36
2021/04/19 01:20:43;;;;;;;11.15;6.65;;;7.50;92.70;;;;;;4997400;28;20034;-37
2021/04/19 01:23:11;;;;;;;11.07;6.43;;;7.40;92.60;;;;;;5003272;28;20026;-39
2021/04/19 01:25:37;;;;;;;9.55;6.97;;;7.50;92.60;;;;;;4999919;28;20022;-38
2021/04/19 01:28:03;;;;;;;13.77;8.13;;;7.40;92.70;;;;;;5000412;28;20057;-38
2021/04/19 01:30:41;;;;;;;12.90;7.80;;;7.40;92.90;;;;;;5001605;28;20028;-35
2021/04/19 01:33:07;;;;;;;11.23;7.72;;;7.40;92.90;;;;;;4999478;28;20768;-38
2021/04/19 01:35:42;;;;;;;13.80;7.07;;;7.40;93.10;;;;;;5002916;28;20017;-37
2021/04/19 01:38:12;;;;;;;11.25;7.60;;;7.40;93.10;;;;;;4998929;28;20112;-37
2021/04/19 01:40:44;;;;;;;11.38;7.07;;;7.40;93.20;;;;;;5003193;28;20368;-36
2021/04/19 01:43:10;;;;;;;12.37;7.87;;;7.30;93.20;;;;;;4997488;28;20388;-37
2021/04/19 01:45:36;;;;;;;14.20;7.78;;;7.30;93.30;;;;;;5004640;28;20327;-37
2021/04/19 01:48:02;;;;;;;11.15;8.02;;;7.30;93.30;;;;;;4994458;28;20032;-37
2021/04/19 01:50:30;;;;;;;13.45;7.80;;;7.30;93.80;;;;;;5004201;28;20053;-36
2021/04/19 01:52:57;;;;;;;11.15;7.25;;;7.20;93.60;;;;;;4995299;28;20100;-38
2021/04/19 01:55:26;;;;;;;13.88;7.43;;;7.20;93.70;;;;;;4988383;28;20434;-38
2021/04/19 01:58:03;;;;;;;11.00;6.82;;;7.10;93.70;;;;;;4993676;28;20022;-37
2021/04/19 02:00:34;;;;;;;15.48;8.55;;;7.10;93.70;;;;;;5005582;28;20096;-34
2021/04/19 02:03:18;;;;;;;10.60;7.82;;;7.10;93.80;;;;;;4997851;28;21090;-36
2021/04/19 02:05:56;;;;;;;19.48;10.52;;;7.10;94.00;;;;;;4992791;28;20057;-38
2021/04/19 02:08:40;;;;;;;14.63;9.32;;;7.10;94.20;;;;;;4997269;28;20034;-38
2021/04/19 02:11:18;;;;;;;16.08;9.13;;;7.10;94.50;;;;;;4987492;28;20057;-38
2021/04/19 02:13:56;;;;;;;12.35;8.65;;;7.00;94.60;;;;;;4997325;28;20027;-38
2021/04/19 02:16:42;;;;;;;16.05;8.85;;;6.90;94.60;;;;;;4987326;28;20175;-35
2021/04/19 02:19:18;;;;;;;13.40;7.97;;;6.90;94.60;;;;;;4995488;28;20099;-33
2021/04/19 02:21:48;;;;;;;12.45;8.30;;;6.90;94.60;;;;;;5004105;28;20065;-36
2021/04/19 02:24:19;;;;;;;13.65;9.00;;;6.80;94.70;;;;;;4994117;28;20021;-36
2021/04/19 02:26:56;;;;;;;14.07;8.45;;;6.80;94.70;;;;;;5003819;28;20065;-37
2021/04/19 02:29:30;;;;;;;12.75;7.78;;;6.80;94.90;;;;;;4994133;28;20041;-36
2021/04/19 02:32:01;;;;;;;15.75;9.38;;;6.80;94.80;;;;;;5004047;28;20022;-36
2021/04/19 02:34:31;;;;;;;14.27;9.02;;;6.80;94.90;;;;;;4994161;28;20026;-36
2021/04/19 02:36:58;;;;;;;12.38;9.07;;;6.70;95.00;;;;;;5003137;28;20021;-37
2021/04/19 02:39:25;;;;;;;12.43;7.70;;;6.70;95.00;;;;;;4994088;28;20100;-33
2021/04/19 02:41:53;;;;;;;12.63;7.60;;;6.70;95.00;;;;;;5007737;28;20056;-37
2021/04/19 02:44:20;;;;;;;11.18;7.70;;;6.70;95.00;;;;;;4996733;28;20469;-38
2021/04/19 02:46:49;;;;;;;13.48;8.30;;;6.60;95.00;;;;;;5009383;28;20358;-37
2021/04/19 02:49:15;;;;;;;14.70;9.70;;;6.60;95.30;;;;;;4997042;28;20018;-37
2021/04/19 02:51:42;;;;;;;15.20;10.43;;;6.50;96.00;;;;;;5008799;28;20100;-37
2021/04/19 02:54:09;;;;;;;15.52;10.10;;;6.50;96.40;;;;;;5004430;28;20121;-36
2021/04/19 02:56:36;;;;;;;14.85;9.63;;;6.40;96.60;;;;;;5009122;28;20480;-38
2021/04/19 02:59:09;;;;;;;16.08;10.43;;;6.30;96.40;;;;;;5004280;28;20107;-37
2021/04/19 03:01:39;;;;;;;18.95;9.85;;;6.30;96.30;;;;;;4991481;28;20039;-35
2021/04/19 03:04:12;;;;;;;16.50;10.05;;;6.30;96.20;;;;;;4997398;28;20025;-38
2021/04/19 03:06:43;;;;;;;14.30;9.43;;;6.40;96.20;;;;;;4992768;28;20030;-37
2021/04/19 03:09:11;;;;;;;15.93;10.45;;;6.40;96.20;;;;;;4996904;28;20018;-33
2021/04/19 03:11:52;;;;;;;16.10;10.82;;;6.40;96.10;;;;;;4994101;28;20118;-37
2021/04/19 03:14:22;;;;;;;14.82;10.68;;;6.40;96.10;;;;;;4996373;28;20080;-37
2021/04/19 03:16:53;;;;;;;14.77;9.77;;;6.40;96.10;;;;;;4993518;28;20443;-37
2021/04/19 03:19:25;;;;;;;11.93;9.20;;;6.40;96.10;;;;;;4995002;28;20040;-37
2021/04/19 03:21:52;;;;;;;14.07;8.60;;;6.40;96.10;;;;;;4994776;28;20081;-37
2021/04/19 03:24:18;;;;;;;13.95;9.07;;;6.40;96.00;;;;;;4993389;28;20594;-36
2021/04/19 03:26:52;;;;;;;11.07;7.63;;;6.40;96.00;;;;;;4996661;28;20064;-36
2021/04/19 03:29:18;;;;;;;16.80;9.73;;;6.40;96.00;;;;;;4992038;28;20128;-37
2021/04/19 03:31:51;;;;;;;16.33;10.90;;;6.40;96.00;;;;;;4998557;28;20089;-37
2021/04/19 03:34:26;;;;;;;22.38;14.23;;;6.40;96.10;;;;;;4991033;28;20050;-34
2021/04/19 03:36:57;;;;;;;19.08;11.73;;;6.40;96.40;;;;;;4998843;28;20108;-39
2021/04/19 03:39:24;;;;;;;17.88;11.55;;;6.30;96.50;;;;;;5006777;28;20094;-37
2021/04/19 03:41:56;;;;;;;17.05;10.60;;;6.30;96.50;;;;;;4997720;28;20041;-40
2021/04/19 03:44:25;;;;;;;19.60;11.95;;;6.30;96.50;;;;;;5007616;28;20101;-39
2021/04/19 03:46:53;;;;;;;22.05;13.40;;;6.20;96.60;;;;;;4996405;28;20065;-37
2021/04/19 03:49:28;;;;;;;21.58;12.63;;;6.20;96.70;;;;;;5007559;28;20025;-38
2021/04/19 03:51:57;;;;;;;22.65;14.70;;;6.20;96.90;;;;;;4999558;28;20115;-38
2021/04/19 03:54:27;;;;;;;25.58;15.30;;;6.10;97.00;;;;;;4996054;28;20051;-37
2021/04/19 03:56:55;;;;;;;22.65;15.00;;;6.10;97.20;;;;;;4996203;28;20056;-37
2021/04/19 03:59:21;;;;;;;21.13;14.00;;;6.10;97.40;;;;;;5007855;28;20038;-38
2021/04/19 04:01:48;;;;;;;27.08;15.18;;;6.10;97.50;;;;;;4994903;28;20327;-36
2021/04/19 04:04:16;;;;;;;22.00;14.65;;;6.10;97.60;;;;;;5008219;28;20454;-37
2021/04/19 04:06:42;;;;;;;27.65;14.10;;;6.00;97.70;;;;;;4995357;28;20390;-38
2021/04/19 04:09:08;;;;;;;23.10;14.00;;;6.00;97.70;;;;;;5007282;28;20041;-38
2021/04/19 04:11:35;;;;;;;21.75;14.27;;;6.00;97.70;;;;;;4997693;28;20026;-35
2021/04/19 04:14:03;;;;;;;19.95;14.52;;;6.00;97.70;;;;;;5005237;28;20099;-37
2021/04/19 04:16:29;;;;;;;23.20;14.50;;;6.00;97.70;;;;;;4999174;28;20073;-39
2021/04/19 04:18:54;;;;;;;21.50;13.00;;;6.00;97.80;;;;;;5003679;28;20029;-37
2021/04/19 04:21:20;;;;;;;14.60;10.77;;;6.00;97.80;;;;;;5002741;28;20046;-37
2021/04/19 04:23:46;;;;;;;20.75;13.48;;;6.10;97.80;;;;;;5000372;28;20074;-39
2021/04/19 04:26:12;;;;;;;22.35;13.35;;;6.10;97.70;;;;;;5004710;28;20067;-37
2021/04/19 04:28:38;;;;;;;20.75;12.20;;;6.10;97.70;;;;;;4998095;28;20022;-36
2021/04/19 04:31:04;;;;;;;17.30;11.32;;;6.10;97.60;;;;;;5005927;28;20072;-37
2021/04/19 04:33:30;;;;;;;17.98;12.25;;;6.20;97.50;;;;;;4996076;28;20334;-37
2021/04/19 04:35:55;;;;;;;16.88;12.40;;;6.20;97.50;;;;;;5005776;28;20477;-35
2021/04/19 04:38:21;;;;;;;19.27;12.57;;;6.20;97.40;;;;;;4996360;28;20303;-35
2021/04/19 04:40:46;;;;;;;19.42;11.95;;;6.20;97.40;;;;;;5007436;28;20113;-37
2021/04/19 04:43:21;;;;;;;16.80;11.77;;;6.30;97.40;;;;;;4994725;28;20037;-37
2021/04/19 04:45:50;;;;;;;17.77;11.75;;;6.30;97.30;;;;;;5007340;28;20040;-39
2021/04/19 04:48:43;;;;;;;18.30;11.40;;;6.30;97.20;;;;;;4995148;28;20038;-37
2021/04/19 04:51:18;;;;;;;13.50;9.93;;;6.40;97.10;;;;;;5006713;28;20049;-37
2021/04/19 04:53:49;;;;;;;16.70;11.23;;;6.40;97.10;;;;;;4993228;28;20272;-34
2021/04/19 04:56:18;;;;;;;19.13;12.90;;;6.40;97.00;;;;;;4987894;28;20563;-38
2021/04/19 04:58:51;;;;;;;21.23;14.50;;;6.50;97.00;;;;;;4999704;28;20144;-39
2021/04/19 05:01:18;;;;;;;20.38;14.05;;;6.50;97.00;;;;;;4987828;28;20054;-38
2021/04/19 05:03:45;;;;;;;17.42;13.20;;;6.50;97.10;;;;;;4998436;28;20036;-38
2021/04/19 05:06:12;;;;;;;19.40;13.43;;;6.50;97.10;;;;;;4987759;28;20041;-38
2021/04/19 05:08:39;;;;;;;22.88;14.23;;;6.50;97.20;;;;;;4998307;28;20034;-39
2021/04/19 05:11:05;;;;;;;22.20;14.98;;;6.50;97.50;;;;;;4987286;28;20042;-33
2021/04/19 05:13:33;;;;;;;27.00;15.88;;;6.40;97.70;;;;;;4995712;28;20822;-38
2021/04/19 05:15:59;;;;;;;24.92;16.35;;;6.40;98.10;;;;;;4989428;28;20145;-38
2021/04/19 05:18:24;;;;;;;27.67;16.35;;;6.30;97.80;;;;;;4993486;28;20014;-36
2021/04/19 05:20:50;;;;;;;26.98;16.77;;;6.40;97.90;;;;;;4992231;28;20050;-37
2021/04/19 05:23:19;;;;;;;24.27;15.70;;;6.30;98.10;;;;;;4991167;28;20053;-37
2021/04/19 05:25:46;;;;;;;32.95;18.50;;;6.30;98.10;;;;;;4993818;28;20470;-38
2021/04/19 05:28:12;;;;;;;28.85;19.98;;;6.30;98.30;;;;;;4989270;28;20596;-35
2021/04/19 05:30:39;;;;;;;26.67;18.58;;;6.30;98.40;;;;;;4996465;28;20121;-38
2021/04/19 05:33:05;;;;;;;35.53;20.98;;;6.40;98.70;;;;;;4987503;28;20020;-38
2021/04/19 05:35:33;;;;;;;34.25;22.85;;;6.40;98.80;;;;;;4997995;28;20105;-38
2021/04/19 05:37:59;;;;;;;31.00;20.10;;;6.30;99.00;;;;;;4988062;28;20025;-35
2021/04/19 05:40:26;;;;;;;31.80;20.90;;;6.30;99.20;;;;;;4997103;28;20030;-34
2021/04/19 05:42:52;;;;;;;36.00;22.35;;;6.30;99.30;;;;;;4986907;28;20117;-38
2021/04/19 05:45:18;;;;;;;31.85;21.48;;;6.30;99.40;;;;;;4999209;28;20316;-38
2021/04/19 05:47:48;;;;;;;35.08;23.02;;;6.30;99.50;;;;;;4985070;28;20070;-36
2021/04/19 05:50:22;;;;;;;29.35;19.05;;;6.30;99.70;;;;;;4991959;28;20044;-36
2021/04/19 05:52:51;;;;;;;33.28;19.98;;;6.30;99.70;;;;;;4989829;28;20434;-39
2021/04/19 05:55:18;;;;;;;49.80;29.13;;;6.20;99.70;;;;;;4997533;28;20963;-36
2021/04/19 05:58:11;;;;;;;37.75;24.95;;;6.20;99.80;;;;;;5001899;28;20034;-39
2021/04/19 06:00:43;;;;;;;44.72;29.05;;;6.20;99.90;;;;;;4998852;28;20050;-37
2021/04/19 06:03:23;;;;;;;39.30;27.90;;;6.20;99.90;;;;;;4985291;28;20026;-39
2021/04/19 06:06:15;;;;;;;37.80;25.02;;;6.10;99.90;;;;;;4994999;28;20794;-37
2021/04/19 06:08:57;;;;;;;56.03;30.70;;;6.10;99.90;;;;;;5004185;28;20025;-36
2021/04/19 06:11:40;;;;;;;80.97;42.25;;;6.10;99.90;;;;;;4993474;28;20026;-38
2021/04/19 06:14:08;;;;;;;40.88;27.23;;;6.10;99.90;;;;;;5003141;28;20120;-41
2021/04/19 06:16:42;;;;;;;54.22;32.97;;;6.10;99.90;;;;;;4994079;28;20476;-40
2021/04/19 06:19:11;;;;;;;53.25;32.58;;;6.20;99.90;;;;;;5005437;28;20125;-38
2021/04/19 06:21:39;;;;;;;56.20;34.05;;;6.20;99.90;;;;;;4996064;28;20045;-39
2021/04/19 06:24:06;;;;;;;52.40;31.15;;;6.20;99.90;;;;;;5002048;28;20097;-37
2021/04/19 06:26:33;;;;;;;46.45;28.88;;;6.30;99.90;;;;;;4997529;28;20026;-38
2021/04/19 06:28:59;;;;;;;45.70;29.35;;;6.30;99.90;;;;;;5000918;28;20640;-40
2021/04/19 06:31:25;;;;;;;45.10;30.13;;;6.40;99.90;;;;;;4993423;28;20145;-39
2021/04/19 06:34:10;;;;;;;47.97;29.17;;;6.40;99.90;;;;;;5004065;28;20026;-39
2021/04/19 06:36:42;;;;;;;46.45;29.15;;;6.50;99.90;;;;;;4992883;28;20062;-39
2021/04/19 06:39:10;;;;;;;44.95;28.92;;;6.50;99.90;;;;;;4985482;28;20092;-37
2021/04/19 06:41:36;;;;;;;43.67;27.70;;;6.50;99.90;;;;;;4995279;28;20068;-39
2021/04/19 06:44:02;;;;;;;43.08;29.08;;;6.50;99.90;;;;;;4987081;28;20436;-37
2021/04/19 06:46:37;;;;;;;39.50;24.63;;;6.50;99.90;;;;;;4993252;28;20018;-39
2021/04/19 06:49:05;;;;;;;33.58;22.88;;;6.60;99.90;;;;;;4988133;28;20026;-38
2021/04/19 06:51:31;;;;;;;37.05;23.92;;;6.50;99.90;;;;;;4991418;28;20018;-39
2021/04/19 06:53:58;;;;;;;34.08;23.83;;;6.50;99.90;;;;;;4992996;28;20065;-37
2021/04/19 06:56:34;;;;;;;42.83;28.10;;;6.60;99.90;;;;;;4999601;28;20053;-39
2021/04/19 06:59:00;;;;;;;42.80;26.92;;;6.60;99.90;;;;;;4998532;28;20201;-39
2021/04/19 07:01:29;;;;;;;41.22;27.70;;;6.60;99.90;;;;;;5000891;28;20057;-41
2021/04/19 07:03:59;;;;;;;37.95;25.92;;;6.60;99.90;;;;;;4995912;28;20049;-38
2021/04/19 07:06:36;;;;;;;37.17;24.92;;;6.70;99.90;;;;;;5002760;28;20073;-37
2021/04/19 07:09:20;;;;;;;35.40;26.23;;;6.80;99.90;;;;;;4996526;28;20038;-39
2021/04/19 07:11:49;;;;;;;38.20;26.30;;;6.80;99.90;;;;;;5001580;28;20026;-38
2021/04/19 07:14:16;;;;;;;35.97;24.92;;;6.90;99.90;;;;;;4996798;28;20076;-39
2021/04/19 07:16:42;;;;;;;31.95;22.52;;;7.10;99.90;;;;;;5002980;28;20452;-38
2021/04/19 07:19:08;;;;;;;31.65;21.85;;;7.20;99.90;;;;;;4993569;28;20691;-38
2021/04/19 07:21:34;;;;;;;26.20;19.52;;;7.40;99.90;;;;;;5003107;28;20042;-40
2021/04/19 07:24:05;;;;;;;27.27;19.75;;;7.50;99.90;;;;;;4996059;28;20097;-38
2021/04/19 07:26:31;;;;;;;33.75;23.00;;;7.50;99.90;;;;;;4985445;28;20465;-38
2021/04/19 07:28:57;;;;;;;30.25;22.48;;;7.70;99.90;;;;;;4999644;28;20030;-38
2021/04/19 07:31:23;;;;;;;34.03;24.67;;;7.70;99.90;;;;;;4988946;28;20037;-39
2021/04/19 07:33:48;;;;;;;38.00;26.23;;;7.90;99.90;;;;;;5003061;28;20086;-39
2021/04/19 07:36:34;;;;;;;33.85;24.48;;;8.10;99.90;;;;;;5008703;28;20084;-40
2021/04/19 07:39:00;;;;;;;37.95;25.55;;;8.30;99.90;;;;;;4995129;28;20038;-40
2021/04/19 07:41:45;;;;;;;32.28;23.27;;;8.50;99.90;;;;;;5008090;28;20766;-42
2021/04/19 07:44:30;;;;;;;37.17;25.27;;;8.70;99.90;;;;;;4995438;28;20026;-39
2021/04/19 07:47:20;;;;;;;30.52;23.38;;;8.80;99.90;;;;;;5007558;28;20030;-40
2021/04/19 07:50:01;;;;;;;36.78;26.13;;;8.90;99.90;;;;;;4997191;28;20092;-39
2021/04/19 07:52:28;;;;;;;33.72;24.55;;;8.90;99.90;;;;;;5006800;28;20030;-37
2021/04/19 07:55:07;;;;;;;29.13;21.95;;;9.10;99.90;;;;;;4994267;28;20041;-39
2021/04/19 07:57:33;;;;;;;25.33;19.80;;;9.20;99.90;;;;;;4988543;28;20125;-40
2021/04/19 07:59:59;;;;;;;26.55;20.75;;;9.30;99.90;;;;;;4995398;28;20547;-40
2021/04/19 08:02:25;;;;;;;26.73;21.40;;;9.50;99.90;;;;;;5007933;28;20113;-39
2021/04/19 08:05:00;;;;;;;26.60;19.33;;;9.70;99.90;;;;;;4994886;28;20030;-38
2021/04/19 08:07:29;;;;;;;25.35;20.25;;;9.70;99.90;;;;;;5007578;28;20598;-38
2021/04/19 08:10:01;;;;;;;25.10;20.10;;;9.80;99.90;;;;;;4995092;28;20030;-36
2021/04/19 08:12:41;;;;;;;27.05;20.33;;;9.90;99.90;;;;;;5006247;28;20478;-39
2021/04/19 08:15:20;;;;;;;25.85;19.08;;;9.90;99.90;;;;;;4993790;28;20113;-39
2021/04/19 08:17:46;;;;;;;23.55;17.75;;;10.00;99.90;;;;;;5007723;28;20616;-39
2021/04/19 08:20:14;;;;;;;26.92;20.65;;;10.00;99.90;;;;;;4995024;28;20176;-39
2021/04/19 08:22:41;;;;;;;23.40;18.90;;;10.10;99.90;;;;;;5007047;28;20473;-36
2021/04/19 08:25:13;;;;;;;24.30;20.48;;;10.10;99.90;;;;;;4996664;28;20022;-38
2021/04/19 08:27:41;;;;;;;28.23;22.55;;;10.10;99.90;;;;;;5006557;28;20022;-38
2021/04/19 08:30:09;;;;;;;25.83;21.42;;;10.00;99.90;;;;;;4997704;28;20037;-39
2021/04/19 08:32:34;;;;;;;26.58;20.88;;;10.00;99.90;;;;;;5004927;28;20114;-40
2021/04/19 08:35:01;;;;;;;29.40;22.30;;;10.10;99.90;;;;;;4999571;28;20809;-40
2021/04/19 08:37:29;;;;;;;27.77;22.52;;;10.10;99.90;;;;;;5002088;28;20132;-37
2021/04/19 08:39:59;;;;;;;29.35;21.38;;;10.10;99.90;;;;;;5000970;28;20056;-38
2021/04/19 08:42:26;;;;;;;25.67;20.58;;;10.20;99.90;;;;;;4999244;28;20030;-38
2021/04/19 08:44:57;;;;;;;26.73;19.70;;;10.20;99.90;;;;;;5004212;28;20109;-36
2021/04/19 08:47:27;;;;;;;25.15;20.20;;;10.30;99.90;;;;;;4998626;28;20469;-38
2021/04/19 08:50:00;;;;;;;23.67;19.95;;;10.30;99.90;;;;;;5004417;28;20022;-37
2021/04/19 08:52:27;;;;;;;24.13;19.10;;;10.40;99.90;;;;;;4997323;28;20602;-35
2021/04/19 08:54:56;;;;;;;22.90;18.17;;;10.30;99.80;;;;;;4999189;28;20026;-38
2021/04/19 08:57:23;;;;;;;24.42;18.77;;;10.40;99.90;;;;;;4997884;28;20077;-39
2021/04/19 08:59:50;;;;;;;21.25;16.30;;;10.40;99.90;;;;;;4998850;28;20380;-39
2021/04/19 09:02:17;;;;;;;19.88;16.25;;;10.50;99.80;;;;;;4999087;28;20057;-38
2021/04/19 09:05:06;;;;;;;18.42;15.18;;;10.50;99.50;;;;;;5005786;28;20026;-38
2021/04/19 09:07:35;;;;;;;19.75;17.15;;;10.50;99.50;;;;;;5001243;28;20127;-40
2021/04/19 09:10:01;;;;;;;21.10;16.58;;;10.40;99.50;;;;;;5005342;28;20044;-39
2021/04/19 09:12:30;;;;;;;19.92;16.35;;;10.40;99.60;;;;;;5002547;28;20021;-39
2021/04/19 09:15:17;;;;;;;23.13;16.63;;;10.40;99.60;;;;;;5006563;28;20056;-39
2021/04/19 09:18:08;;;;;;;19.48;15.82;;;10.60;99.70;;;;;;4994714;28;20264;-39
2021/04/19 09:20:58;;;;;;;19.58;15.40;;;10.70;99.60;;;;;;5004674;28;20034;-39
2021/04/19 09:23:30;;;;;;;16.45;13.98;;;10.90;99.50;;;;;;4996474;28;20045;-40
2021/04/19 09:25:56;;;;;;;17.98;13.82;;;11.00;99.40;;;;;;5004387;28;20037;-39
2021/04/19 09:28:40;;;;;;;19.63;15.77;;;11.10;99.30;;;;;;4986064;28;20644;-39
2021/04/19 09:31:12;;;;;;;19.17;15.27;;;11.30;99.10;;;;;;4989004;28;20030;-39
2021/04/19 09:33:39;;;;;;;;;;;11.50;99.00;;;;;;4994931;28;20030;-39
2021/04/19 09:36:25;;;;;;;20.00;15.38;;;11.70;98.90;;;;;;5004439;28;19983;-38
2021/04/19 09:38:52;;;;;;;20.13;16.00;;;11.80;98.60;;;;;;4994096;28;20046;-40
2021/04/19 09:41:20;;;;;;;23.25;17.25;;;12.00;98.30;;;;;;5004036;28;20418;-38
2021/04/19 09:43:54;;;;;;;16.77;14.43;;;12.10;98.00;;;;;;5002554;28;20041;-39
2021/04/19 09:46:20;;;;;;;16.65;14.50;;;12.10;97.90;;;;;;4999490;28;20029;-39
2021/04/19 09:49:05;;;;;;;18.45;15.65;;;12.20;97.90;;;;;;4997910;28;20026;-38
2021/04/19 09:51:40;;;;;;;16.63;14.45;;;12.30;97.50;;;;;;5000764;28;20092;-39
2021/04/19 09:54:10;;;;;;;15.50;13.75;;;12.40;97.20;;;;;;4997745;28;20049;-38
2021/04/19 09:56:41;;;;;;;14.20;12.70;;;12.50;97.00;;;;;;5004342;28;20520;-39
2021/04/19 09:59:14;;;;;;;13.52;12.13;;;12.50;96.50;;;;;;4996306;28;20049;-39
2021/04/19 10:01:39;;;;;;;11.70;10.48;;;12.40;96.40;;;;;;4989127;28;20048;-39
2021/04/19 10:04:05;;;;;;;12.25;10.95;;;12.40;96.70;;;;;;4993350;28;20034;-38
2021/04/19 10:06:50;;;;;;;11.35;10.07;;;12.40;96.90;;;;;;5004271;28;20030;-35
2021/04/19 10:09:26;;;;;;;11.48;10.27;;;12.60;97.00;;;;;;4997851;28;20030;-39
2021/04/19 10:11:59;;;;;;;11.98;10.55;;;12.80;96.90;;;;;;5005316;28;20100;-38
2021/04/19 10:14:26;;;;;;;13.20;11.80;;;12.90;96.70;;;;;;4990544;28;20068;-36
2021/04/19 10:16:52;;;;;;;12.43;11.13;;;13.10;95.90;;;;;;4987062;28;20033;-39
2021/04/19 10:19:27;;;;;;;12.00;10.55;;;13.10;95.60;;;;;;5001310;28;20563;-37
2021/04/19 10:22:04;;;;;;;11.18;9.85;;;13.20;95.50;;;;;;5002481;28;20569;-38
2021/04/19 10:24:33;;;;;;;11.27;10.07;;;13.20;95.50;;;;;;4989871;28;20027;-38
2021/04/19 10:26:59;;;;;;;10.93;9.80;;;13.20;95.30;;;;;;4985224;28;20327;-39
2021/04/19 10:29:27;;;;;;;12.23;10.98;;;13.20;95.40;;;;;;4995668;28;20592;-39
2021/04/19 10:32:00;;;;;;;11.63;10.45;;;13.30;95.30;;;;;;4984877;28;20022;-40
2021/04/19 10:34:29;;;;;;;13.30;11.57;;;13.40;95.00;;;;;;4995066;28;20124;-39
2021/04/19 10:37:04;;;;;;;11.70;10.43;;;13.40;94.70;;;;;;4990333;28;20466;-37
2021/04/19 10:39:34;;;;;;;12.00;10.68;;;13.40;94.60;;;;;;4997667;28;20274;-37
2021/04/19 10:42:05;;;;;;;13.48;10.93;;;13.50;94.60;;;;;;5001456;28;20071;-39
2021/04/19 10:44:37;;;;;;;11.48;10.38;;;13.60;94.00;;;;;;4995788;28;20069;-38
2021/04/19 10:47:05;;;;;;;11.82;10.63;;;13.50;93.70;;;;;;5002031;28;20037;-39
2021/04/19 10:49:30;;;;;;;10.77;9.68;;;13.40;93.40;;;;;;4997577;28;20094;-39
2021/04/19 10:51:59;;;;;;;11.35;10.15;;;13.40;93.70;;;;;;4999421;28;20113;-37
2021/04/19 10:54:33;;;;;;;13.05;11.60;;;13.40;93.90;;;;;;5002914;28;20088;-37
2021/04/19 10:57:00;;;;;;;11.60;10.40;;;13.50;93.70;;;;;;5004129;28;20026;-38
2021/04/19 10:59:26;;;;;;;10.05;9.02;;;13.60;93.20;;;;;;4996851;28;20038;-36
2021/04/19 11:02:05;;;;;;;9.57;8.55;;;13.80;93.10;;;;;;4994180;28;20046;-41
2021/04/19 11:04:31;;;;;;;11.07;8.52;;;13.90;93.20;;;;;;4991607;28;20092;-38
2021/04/19 11:07:22;;;;;;;8.63;7.82;;;14.10;93.20;;;;;;4998688;28;20114;-38
2021/04/19 11:10:07;;;;;;;9.48;8.57;;;14.40;93.10;;;;;;4974108;28;20026;-38
2021/04/19 11:12:32;;;;;;;11.00;9.40;;;14.50;92.60;;;;;;4995643;28;20096;-40
2021/04/19 11:15:15;;;;;;;10.30;9.18;;;14.60;91.80;;;;;;4992724;28;20030;-38
2021/04/19 11:17:44;;;;;;;8.90;8.10;;;14.60;91.30;;;;;;4994792;28;20034;-39
2021/04/19 11:20:22;;;;;;;9.32;8.43;;;14.60;90.80;;;;;;4993304;28;20034;-35
2021/04/19 11:22:48;;;;;;;9.40;8.48;;;14.60;91.10;;;;;;4995046;28;20588;-38
2021/04/19 11:25:18;;;;;;;8.18;7.38;;;14.70;91.30;;;;;;4991527;28;20055;-39
2021/04/19 11:27:53;;;;;;;8.73;7.93;;;14.90;91.30;;;;;;5005665;28;20651;-38
2021/04/19 11:30:39;;;;;;;9.95;8.23;;;15.00;91.20;;;;;;5005386;28;20018;-42
2021/04/19 11:33:06;;;;;;;8.02;7.22;;;15.10;90.50;;;;;;4995512;28;20054;-39
2021/04/19 11:35:43;;;;;;;7.72;6.97;;;15.20;90.80;;;;;;4990801;28;20033;-36
2021/04/19 11:38:23;;;;;;;7.47;6.78;;;15.30;90.80;;;;;;4996332;28;20444;-40
2021/04/19 11:41:08;;;;;;;7.82;7.13;;;15.30;90.60;;;;;;4991739;28;20190;-38
2021/04/19 11:43:35;;;;;;;8.35;7.53;;;15.40;90.40;;;;;;4994239;28;20026;-39
2021/04/19 11:46:07;;;;;;;8.45;7.07;;;15.30;90.20;;;;;;4991940;28;20091;-37
2021/04/19 11:48:35;;;;;;;8.77;7.97;;;15.30;90.20;;;;;;4996250;28;20037;-39
2021/04/19 11:51:03;;;;;;;7.68;6.97;;;15.30;89.80;;;;;;4990765;28;20339;-37
2021/04/19 11:53:31;;;;;;;8.70;7.80;;;15.20;89.80;;;;;;4997249;28;20029;-38
2021/04/19 11:55:58;;;;;;;8.07;7.25;;;15.00;90.00;;;;;;5001792;28;20026;-37
2021/04/19 11:58:23;;;;;;;8.60;7.70;;;14.90;90.00;;;;;;4996693;28;20053;-39
2021/04/19 12:00:52;;;;;;;7.57;6.88;;;14.80;89.10;;;;;;5005573;28;20099;-35
2021/04/19 12:03:18;;;;;;;8.18;7.25;;;14.60;88.80;;;;;;4996912;28;20110;-39
2021/04/19 12:05:43;;;;;;;7.32;6.57;;;14.50;88.80;;;;;;5007782;28;20030;-35
2021/04/19 12:08:10;;;;;;;10.70;6.85;;;14.40;89.30;;;;;;4995457;28;20024;-35
2021/04/19 12:10:37;;;;;;;7.88;7.18;;;14.40;89.50;;;;;;5007112;28;20034;-40
2021/04/19 12:13:02;;;;;;;8.13;7.32;;;14.40;89.20;;;;;;4994801;28;20096;-39
2021/04/19 12:15:28;;;;;;;8.57;7.78;;;14.40;89.40;;;;;;5007517;28;20602;-39
2021/04/19 12:17:54;;;;;;;8.35;7.28;;;14.40;88.80;;;;;;4996892;28;20389;-38
2021/04/19 12:20:19;;;;;;;7.95;7.15;;;14.30;88.90;;;;;;5005485;28;20033;-38
2021/04/19 12:22:45;;;;;;;7.53;6.72;;;14.40;89.20;;;;;;4998918;28;20030;-39
2021/04/19 12:25:11;;;;;;;7.90;7.10;;;14.40;89.40;;;;;;5002900;28;20084;-37
2021/04/19 12:27:37;;;;;;;7.70;7.00;;;14.40;89.20;;;;;;5001026;28;20018;-37
2021/04/19 12:30:07;;;;;;;7.38;6.63;;;14.50;89.50;;;;;;5000255;28;20030;-37
2021/04/19 12:32:33;;;;;;;7.13;6.50;;;14.40;89.50;;;;;;5003210;28;20113;-38
2021/04/19 12:34:58;;;;;;;7.78;7.07;;;14.50;89.50;;;;;;4998069;28;20076;-36
2021/04/19 12:37:23;;;;;;;8.60;7.50;;;14.60;89.50;;;;;;5005347;28;20044;-40
2021/04/19 12:39:49;;;;;;;8.18;7.22;;;14.60;89.50;;;;;;4977976;28;20026;-38
2021/04/19 12:42:18;;;;;;;8.60;7.75;;;14.60;89.30;;;;;;5005628;28;20096;-39
2021/04/19 12:44:46;;;;;;;7.95;7.25;;;14.60;89.10;;;;;;4995762;28;20048;-38
2021/04/19 12:47:12;;;;;;;8.82;7.95;;;14.60;89.00;;;;;;5006584;28;20346;-39
2021/04/19 12:49:38;;;;;;;8.40;7.13;;;14.60;88.60;;;;;;4996818;28;20034;-39
2021/04/19 12:52:04;;;;;;;8.63;7.82;;;14.70;88.70;;;;;;5005112;28;20068;-38